Página principal
METAR-TAF:

METAR-TAF

Aeroportos :

Luxemburgo, Luxemburgo

Aeroporto Internacional de Luxemburgo-Findel

latitude: 49-37N, longitude: 006-13E, altura: 376 m

Observação actual do tempo

O boletim foi feito há 41 minutos, às 12:50 UTC
Vento 14 kt de nordeste, variando entre norte e es-nordeste
Temperatura 4°C
Humidade 44%
Pressão 1019 hPa
Visibilidade 10 km ou mais
sem nuvens abaixo de 1500 metros e sem cumulonimbus

METAR: ELLX 211250Z 04014KT 010V070 CAVOK 04/M07 Q1019 NOSIG

Hora: 14:31 (13:31 UTC)

Previsão

O boletim foi feito há 26 horas e 31 minutos, às 11:00 UTC
Previsão válida de 20 às 12 UTC a 21 às 18 UTC
Vento 5 kt de nor-nordeste
Visibilidade 10 km ou mais
Poucas nuvensa uma altura de 2500 ft
Probabilidade 30% :
Temporariamente
de 20 às 20 UTC a 21 às 01 UTC
Visibilidade: 4500 m
neblina

TAF: ELLX 201100Z 2012/2118 03005KT 9999 FEW025 PROB30 TEMPO 2020/2101 4500 BR

Observações e previsões do tempo de mais de 4000 aeroportos (mensagens METAR e TAF).

As estações disponíveis são os pontos amarelos e vermelhos sobre o mapa.

Mova o rato sobre o mapa para ver o nome da estação.

Depois clique no ponto para visualizar as observações e previsões meteorológicas.

Para alterar o mapa : clique nos botões verdes com uma cruz preta para aumentar o zoom; no botão verde com uma pitada de zoom; ou nas setas verdes para mapas adjacentes.


METAR-TAF: